Wallace, North Carolina
Current Conditions -  °F | °C
As of 2:55 PM on Saturday 25 Oct 2014 (Local Time) from KDPL Reporting Station
Clear Clear  
Wind Chill: 71°   Ceiling: Unl
Heat Index: 71°   Visibility: 10mi
Dew Point: 42°   Wind: 3mph
Humidity: 35%   Direction: 230°SW
Pressure: 29.93"   Gusts: NA
Location:  34.74°N, 78°W
Report Text: KDPL 251855Z AUTO 23003KT 10SM CLR 22/06 A2993 RMK AO2 T02180057
Loading
Personal Weather Stations






























Interactive Weather Map
Tropical Storm Tracking
New forecast layout! Learn more

10-Day Weather Forecast

Advertisements
Track Severe Weather on mobile